Time;durP1;ratioP1;P1;durP2;ratioP2;P2;SDS_P1;SDS_P2;PMS_P1;PMS_P2;Temp;Humidity;BMP_temperature;BMP_pressure;BME280_temperature;BME280_humidity;BME280_pressure;Samples;Min_cycle;Max_cycle;Signal;HPM_P1;HPM_P2
2021/07/26 00:01:37;;;;;;;14.70;6.28;;;25.80;61.90;;;;;;1894141;76;21467;-53
2021/07/26 00:04:07;;;;;;;17.25;7.05;;;25.80;61.80;;;;;;1894059;76;21010;-53
2021/07/26 00:06:36;;;;;;;11.95;5.47;;;25.80;62.00;;;;;;1894141;75;21084;-53
2021/07/26 00:09:06;;;;;;;22.27;9.38;;;25.80;62.20;;;;;;1894064;76;21096;-52
2021/07/26 00:11:35;;;;;;;16.73;6.83;;;25.80;61.90;;;;;;1894188;76;21069;-53
2021/07/26 00:14:05;;;;;;;11.80;5.70;;;25.70;61.90;;;;;;1894124;76;21077;-52
2021/07/26 00:16:34;;;;;;;6.70;4.92;;;25.70;62.30;;;;;;1894133;76;21030;-53
2021/07/26 00:19:03;;;;;;;9.00;5.55;;;25.60;62.30;;;;;;1894093;76;21030;-52
2021/07/26 00:21:33;;;;;;;7.60;4.97;;;25.60;61.90;;;;;;1894085;76;21038;-51
2021/07/26 00:24:02;;;;;;;7.08;5.20;;;25.60;62.00;;;;;;1894102;76;21100;-53
2021/07/26 00:26:32;;;;;;;6.80;5.03;;;25.60;62.40;;;;;;1894216;75;21100;-53
2021/07/26 00:29:01;;;;;;;7.50;4.70;;;25.60;62.50;;;;;;1894121;75;21030;-52
2021/07/26 00:31:31;;;;;;;6.55;5.42;;;25.50;62.40;;;;;;1894169;75;21030;-52
2021/07/26 00:34:14;;;;;;;11.38;5.70;;;25.50;62.30;;;;;;1894040;76;21030;-51
2021/07/26 00:36:44;;;;;;;9.00;5.35;;;25.50;62.30;;;;;;1894266;75;21026;-52
2021/07/26 00:39:16;;;;;;;7.60;4.97;;;25.40;61.80;;;;;;1894102;76;21023;-52
2021/07/26 00:41:47;;;;;;;10.78;5.83;;;25.30;62.20;;;;;;1894145;74;21172;-53
2021/07/26 00:44:17;;;;;;;10.03;5.95;;;25.20;62.60;;;;;;1894049;74;21002;-52
2021/07/26 00:46:47;;;;;;;9.30;5.45;;;25.20;62.60;;;;;;1894088;75;21079;-53
2021/07/26 00:49:18;;;;;;;7.12;4.90;;;25.10;62.90;;;;;;1894173;76;21006;-52
2021/07/26 00:51:49;;;;;;;7.17;4.60;;;25.00;63.20;;;;;;1894056;76;21026;-52
2021/07/26 00:54:21;;;;;;;11.63;5.15;;;25.00;63.70;;;;;;1892799;75;21480;-52
2021/07/26 00:56:53;;;;;;;9.43;5.47;;;25.00;63.60;;;;;;1894118;76;21061;-51
2021/07/26 00:59:23;;;;;;;7.53;6.28;;;25.00;63.60;;;;;;1894163;75;21034;-53
2021/07/26 01:01:52;;;;;;;9.55;5.80;;;24.90;63.80;;;;;;1894162;76;21099;-51
2021/07/26 01:04:22;;;;;;;9.48;5.55;;;24.90;63.80;;;;;;1894049;76;21026;-52
2021/07/26 01:06:52;;;;;;;8.83;5.03;;;24.90;63.70;;;;;;1894129;76;21026;-52
2021/07/26 01:09:21;;;;;;;8.85;4.95;;;24.90;63.40;;;;;;1894077;76;21088;-52
2021/07/26 01:11:51;;;;;;;10.80;5.50;;;24.90;63.90;;;;;;1894153;76;21030;-52
2021/07/26 01:14:21;;;;;;;9.55;5.15;;;24.90;63.60;;;;;;1894080;75;21018;-53
2021/07/26 01:16:51;;;;;;;7.03;5.10;;;24.90;64.40;;;;;;1894195;76;21030;-52
2021/07/26 01:19:20;;;;;;;11.50;4.97;;;24.90;63.40;;;;;;1894188;76;21084;-52
2021/07/26 01:21:50;;;;;;;7.33;4.95;;;24.90;63.30;;;;;;1894034;76;21046;-52
2021/07/26 01:24:19;;;;;;;8.73;5.65;;;24.80;63.30;;;;;;1894073;75;21026;-53
2021/07/26 01:26:48;;;;;;;12.43;6.15;;;24.80;63.20;;;;;;1894125;76;21022;-52
2021/07/26 01:29:18;;;;;;;10.95;5.87;;;24.70;63.20;;;;;;1894090;76;21132;-52
2021/07/26 01:31:47;;;;;;;9.65;5.92;;;24.70;63.40;;;;;;1894152;75;21101;-51
2021/07/26 01:34:17;;;;;;;12.30;6.25;;;24.60;63.40;;;;;;1894002;75;21121;-51
2021/07/26 01:36:46;;;;;;;9.08;6.42;;;24.60;63.60;;;;;;1894180;74;21026;-52
2021/07/26 01:39:16;;;;;;;15.40;6.85;;;24.60;63.60;;;;;;1894183;76;21081;-52
2021/07/26 01:41:45;;;;;;;9.95;6.25;;;24.60;63.80;;;;;;1894114;76;21070;-53
2021/07/26 01:44:15;;;;;;;12.50;7.00;;;24.60;64.10;;;;;;1894032;76;21062;-53
2021/07/26 01:46:56;;;;;;;23.07;8.85;;;24.60;64.00;;;;;;1893989;76;21026;-52
2021/07/26 01:49:45;;;;;;;20.02;7.65;;;24.70;64.20;;;;;;1893850;75;21084;-52
2021/07/26 01:52:17;;;;;;;14.23;8.05;;;24.70;64.20;;;;;;1893849;74;21022;-51
2021/07/26 01:54:46;;;;;;;20.55;8.85;;;24.70;64.30;;;;;;1894081;75;21565;-51
2021/07/26 01:57:16;;;;;;;11.85;7.05;;;24.70;64.10;;;;;;1894074;75;21042;-52
2021/07/26 01:59:46;;;;;;;11.20;6.75;;;24.70;63.90;;;;;;1894082;75;21088;-52
2021/07/26 02:02:16;;;;;;;18.77;7.90;;;24.70;64.10;;;;;;1894087;75;21073;-53
2021/07/26 02:04:45;;;;;;;13.20;7.45;;;24.70;64.10;;;;;;1894015;76;21024;-52
2021/07/26 02:07:15;;;;;;;15.30;7.25;;;24.70;63.80;;;;;;1894065;76;21147;-52
2021/07/26 02:09:45;;;;;;;16.75;8.35;;;24.70;63.90;;;;;;1894033;76;21046;-53
2021/07/26 02:12:14;;;;;;;20.48;8.05;;;24.70;64.10;;;;;;1894144;74;21006;-51
2021/07/26 02:14:44;;;;;;;15.83;8.48;;;24.70;64.10;;;;;;1894079;75;21034;-52
2021/07/26 02:17:13;;;;;;;15.60;7.85;;;24.70;64.10;;;;;;1894077;76;21096;-50
2021/07/26 02:19:43;;;;;;;25.27;9.88;;;24.70;64.40;;;;;;1894051;75;21026;-51
2021/07/26 02:22:12;;;;;;;20.40;8.05;;;24.70;64.30;;;;;;1894145;75;21024;-52
2021/07/26 02:24:41;;;;;;;16.82;8.85;;;24.70;64.30;;;;;;1894109;75;21899;-52
2021/07/26 02:27:10;;;;;;;13.30;8.10;;;24.70;64.50;;;;;;1894261;75;21018;-52
2021/07/26 02:29:39;;;;;;;16.97;8.00;;;24.80;64.50;;;;;;1894131;75;21077;-51
2021/07/26 02:32:09;;;;;;;15.58;7.97;;;24.80;64.40;;;;;;1894194;76;21034;-52
2021/07/26 02:34:39;;;;;;;18.73;9.10;;;24.90;64.00;;;;;;1893991;76;21084;-52
2021/07/26 02:37:09;;;;;;;13.85;8.28;;;25.00;63.30;;;;;;1894165;76;21026;-53
2021/07/26 02:39:38;;;;;;;21.10;9.70;;;25.10;63.00;;;;;;1894102;76;21017;-52
2021/07/26 02:42:08;;;;;;;13.25;7.87;;;25.10;63.10;;;;;;1894111;76;21120;-52
2021/07/26 02:44:38;;;;;;;17.12;8.60;;;25.10;63.20;;;;;;1894064;76;21034;-52
2021/07/26 02:47:07;;;;;;;14.43;9.18;;;25.20;63.00;;;;;;1894098;76;21030;-52
2021/07/26 02:49:37;;;;;;;13.48;8.95;;;25.30;62.60;;;;;;1894129;76;21034;-53
2021/07/26 02:52:07;;;;;;;15.10;8.40;;;25.20;62.30;;;;;;1894098;75;21132;-53
2021/07/26 02:54:36;;;;;;;16.25;8.25;;;25.20;62.60;;;;;;1894105;75;21131;-52
2021/07/26 02:57:06;;;;;;;15.45;8.15;;;25.10;62.90;;;;;;1894081;76;21183;-52
2021/07/26 02:59:36;;;;;;;14.20;7.75;;;25.10;63.20;;;;;;1894106;74;21135;-52
2021/07/26 03:02:05;;;;;;;11.48;7.28;;;25.10;63.50;;;;;;1894211;75;21144;-52
2021/07/26 03:04:35;;;;;;;13.55;8.45;;;25.20;63.50;;;;;;1894136;76;21030;-51
2021/07/26 03:07:04;;;;;;;16.70;6.87;;;25.20;63.20;;;;;;1894150;76;21022;-52
2021/07/26 03:09:34;;;;;;;12.82;7.35;;;25.20;63.10;;;;;;1894130;76;21022;-52
2021/07/26 03:12:04;;;;;;;12.05;6.67;;;25.20;62.80;;;;;;1894134;75;21088;-52
2021/07/26 03:14:33;;;;;;;10.85;6.62;;;25.20;62.90;;;;;;1894110;76;21117;-52
2021/07/26 03:17:07;;;;;;;15.43;6.33;;;25.20;62.80;;;;;;1894144;76;21083;-51
2021/07/26 03:19:35;;;;;;;15.60;5.47;;;25.20;62.70;;;;;;1894099;76;21061;-52
2021/07/26 03:22:41;;;;;;;9.33;5.95;;;25.30;62.70;;;;;;1894271;76;21144;-52
2021/07/26 03:25:11;;;;;;;20.57;10.35;;;25.30;62.40;;;;;;1894258;76;21046;-53
2021/07/26 03:27:40;;;;;;;44.03;18.02;;;25.40;62.00;;;;;;1894114;76;21100;-53
2021/07/26 03:30:11;;;;;;;20.15;9.50;;;25.40;61.80;;;;;;1894259;76;21030;-52
2021/07/26 03:32:41;;;;;;;15.08;7.62;;;25.40;61.70;;;;;;1894165;75;21050;-51
2021/07/26 03:35:11;;;;;;;26.30;11.80;;;25.50;61.60;;;;;;1894106;76;21030;-52
2021/07/26 03:37:40;;;;;;;42.70;14.68;;;25.60;61.50;;;;;;1894108;76;21029;-53
2021/07/26 03:40:10;;;;;;;23.65;12.43;;;25.60;60.80;;;;;;1894138;76;21030;-52
2021/07/26 03:42:41;;;;;;;31.27;12.58;;;25.60;60.70;;;;;;1894198;76;21026;-52
2021/07/26 03:45:13;;;;;;;15.93;7.00;;;25.50;60.50;;;;;;1894250;76;21587;-51
2021/07/26 03:47:42;;;;;;;9.13;5.97;;;25.50;60.60;;;;;;1894046;76;21022;-53
2021/07/26 03:50:17;;;;;;;9.73;5.17;;;25.50;60.10;;;;;;1894140;75;21027;-53
2021/07/26 03:52:46;;;;;;;12.43;5.65;;;25.50;60.10;;;;;;1892435;75;21014;-52
2021/07/26 03:55:24;;;;;;;13.98;7.30;;;25.50;60.00;;;;;;1893717;74;21069;-52
2021/07/26 03:57:54;;;;;;;16.73;8.95;;;25.50;60.20;;;;;;1886540;74;21098;-52
2021/07/26 04:00:25;;;;;;;8.83;5.90;;;25.60;60.20;;;;;;1872815;75;21450;-52
2021/07/26 04:05:39;;;;;;;9.33;5.65;;;25.50;59.60;;;;;;1872583;75;21047;-52
2021/07/26 04:08:21;;;;;;;8.70;5.45;;;25.40;59.90;;;;;;1872558;77;21101;-53
2021/07/26 04:10:55;;;;;;;15.75;6.70;;;25.40;60.20;;;;;;1871324;75;21039;-52
2021/07/26 04:13:17;;;;;;;13.05;5.60;;;25.50;60.30;;;;;;1870124;76;21086;-52
2021/07/26 04:15:49;;;;;;;7.05;5.80;;;25.50;60.00;;;;;;1872589;77;21102;-52
2021/07/26 04:18:17;;;;;;;11.12;6.12;;;25.40;59.90;;;;;;1872741;76;21090;-53
2021/07/26 04:20:47;;;;;;;9.50;6.35;;;25.40;59.80;;;;;;1872582;77;21058;-52
2021/07/26 04:23:16;;;;;;;11.53;7.60;;;25.30;60.00;;;;;;1872526;77;21270;-52
2021/07/26 04:25:46;;;;;;;9.23;6.15;;;25.30;60.40;;;;;;1872585;77;21031;-52
2021/07/26 04:28:15;;;;;;;9.33;6.50;;;25.30;60.40;;;;;;1872548;77;21019;-51
2021/07/26 04:30:45;;;;;;;8.80;5.40;;;25.40;60.40;;;;;;1872499;77;21023;-52
2021/07/26 04:33:14;;;;;;;12.40;6.47;;;25.40;60.30;;;;;;1872596;77;21007;-53
2021/07/26 04:35:44;;;;;;;11.40;6.12;;;25.30;60.40;;;;;;1872502;77;21046;-51
2021/07/26 04:38:13;;;;;;;10.82;5.53;;;25.30;60.50;;;;;;1872572;77;21023;-52
2021/07/26 04:40:43;;;;;;;11.38;5.58;;;25.30;60.60;;;;;;1872591;75;21109;-52
2021/07/26 04:43:12;;;;;;;10.28;6.08;;;25.40;60.40;;;;;;1872698;76;21026;-52
2021/07/26 04:45:41;;;;;;;6.80;5.30;;;25.50;60.60;;;;;;1872584;77;21031;-51
2021/07/26 04:48:11;;;;;;;8.80;6.05;;;25.60;60.60;;;;;;1872540;76;21058;-53
2021/07/26 04:50:41;;;;;;;10.43;5.12;;;25.70;60.50;;;;;;1872533;77;21034;-52
2021/07/26 04:53:10;;;;;;;7.33;5.47;;;25.80;60.40;;;;;;1872586;77;21085;-51
2021/07/26 04:55:39;;;;;;;9.40;5.55;;;25.80;60.50;;;;;;1872690;76;21031;-52
2021/07/26 04:58:09;;;;;;;16.07;6.20;;;25.90;60.60;;;;;;1876725;76;21062;-53
2021/07/26 05:00:38;;;;;;;14.78;6.67;;;25.90;60.60;;;;;;1894043;76;21014;-52
2021/07/26 05:03:11;;;;;;;7.42;6.05;;;25.90;60.70;;;;;;1894134;76;21030;-52
2021/07/26 05:05:40;;;;;;;10.48;6.67;;;25.80;61.00;;;;;;1893956;76;21030;-52
2021/07/26 05:08:09;;;;;;;12.00;5.80;;;25.80;61.10;;;;;;1894028;75;21018;-53
2021/07/26 05:10:39;;;;;;;8.20;6.22;;;25.90;61.30;;;;;;1894017;76;21120;-52
2021/07/26 05:13:09;;;;;;;10.30;6.17;;;26.00;61.40;;;;;;1893976;76;21084;-52
2021/07/26 05:15:38;;;;;;;7.58;5.95;;;26.10;61.10;;;;;;1894061;76;21105;-53
2021/07/26 05:18:08;;;;;;;9.00;6.45;;;26.20;61.10;;;;;;1894092;76;21030;-52
2021/07/26 05:20:38;;;;;;;11.55;6.95;;;26.20;61.40;;;;;;1894045;76;21585;-52
2021/07/26 05:23:16;;;;;;;14.87;10.55;;;26.30;61.50;;;;;;1894006;75;21135;-52
2021/07/26 05:25:45;;;;;;;20.12;7.58;;;26.30;61.50;;;;;;1894067;76;21042;-52
2021/07/26 05:28:15;;;;;;;11.30;6.00;;;26.40;61.60;;;;;;1893849;76;21034;-52
2021/07/26 05:30:45;;;;;;;10.68;6.70;;;26.60;61.40;;;;;;1893995;75;21155;-52
2021/07/26 05:33:14;;;;;;;9.13;6.08;;;26.70;61.30;;;;;;1894197;76;21038;-52
2021/07/26 05:35:45;;;;;;;13.80;7.12;;;26.80;61.20;;;;;;1894222;76;21018;-53
2021/07/26 05:38:14;;;;;;;10.68;7.80;;;27.00;61.20;;;;;;1893918;75;21026;-53
2021/07/26 05:40:43;;;;;;;10.43;6.10;;;27.10;61.10;;;;;;1894027;76;21026;-52
2021/07/26 05:43:14;;;;;;;10.50;7.00;;;27.20;61.00;;;;;;1894177;76;21100;-53
2021/07/26 05:45:44;;;;;;;11.35;6.90;;;27.30;61.00;;;;;;1894259;76;21006;-52
2021/07/26 05:48:13;;;;;;;13.40;6.55;;;27.30;61.10;;;;;;1893967;75;20995;-52
2021/07/26 05:50:43;;;;;;;18.85;6.35;;;27.20;61.10;;;;;;1893967;76;21088;-52
2021/07/26 05:53:12;;;;;;;8.88;6.05;;;27.10;61.40;;;;;;1894036;76;21468;-52
2021/07/26 05:55:41;;;;;;;8.20;5.67;;;27.10;61.80;;;;;;1894111;76;21038;-53
2021/07/26 05:58:11;;;;;;;14.38;6.55;;;27.10;62.00;;;;;;1894007;76;21100;-52
2021/07/26 06:00:46;;;;;;;18.95;7.28;;;27.10;62.10;;;;;;1893939;76;21117;-52
2021/07/26 06:03:14;;;;;;;9.18;5.80;;;27.20;62.10;;;;;;1894255;75;21096;-53
2021/07/26 06:05:43;;;;;;;9.03;6.20;;;27.30;62.00;;;;;;1894210;76;21100;-51
2021/07/26 06:08:12;;;;;;;13.43;6.65;;;27.30;61.90;;;;;;1893976;76;21022;-52
2021/07/26 06:10:42;;;;;;;15.63;6.62;;;27.40;61.90;;;;;;1893978;76;21116;-53
2021/07/26 06:13:11;;;;;;;7.28;6.30;;;27.40;61.80;;;;;;1894027;76;21022;-53
2021/07/26 06:15:41;;;;;;;6.42;5.75;;;27.50;61.80;;;;;;1893984;74;21159;-53
2021/07/26 06:18:10;;;;;;;6.45;5.85;;;27.60;61.70;;;;;;1894056;76;21030;-53
2021/07/26 06:20:39;;;;;;;11.18;5.97;;;27.60;61.60;;;;;;1894031;75;21026;-52
2021/07/26 06:23:09;;;;;;;11.88;6.87;;;27.70;61.80;;;;;;1894182;76;21010;-52
2021/07/26 06:25:38;;;;;;;6.60;5.35;;;27.70;61.80;;;;;;1894116;76;21062;-52
2021/07/26 06:28:08;;;;;;;11.50;6.65;;;27.90;61.60;;;;;;1893958;76;21069;-52
2021/07/26 06:30:37;;;;;;;11.57;6.60;;;28.00;61.30;;;;;;1893976;76;21131;-53
2021/07/26 06:33:10;;;;;;;9.03;6.60;;;28.10;61.00;;;;;;1894038;76;21026;-53
2021/07/26 06:35:39;;;;;;;8.00;5.90;;;28.20;60.90;;;;;;1893273;75;21026;-53
2021/07/26 06:38:09;;;;;;;6.20;5.62;;;28.20;60.90;;;;;;1894019;76;21099;-52
2021/07/26 06:40:38;;;;;;;9.03;5.53;;;28.30;60.90;;;;;;1894077;76;21026;-51
2021/07/26 06:43:08;;;;;;;7.17;5.62;;;28.30;60.90;;;;;;1894114;75;21066;-53
2021/07/26 06:45:37;;;;;;;8.03;5.87;;;28.40;61.10;;;;;;1894005;76;21065;-53
2021/07/26 06:48:07;;;;;;;7.33;6.10;;;28.40;60.80;;;;;;1893941;76;21026;-52
2021/07/26 06:50:39;;;;;;;6.75;5.08;;;28.50;60.80;;;;;;1894031;76;21092;-51
2021/07/26 06:53:08;;;;;;;10.35;5.97;;;28.50;60.70;;;;;;1893992;76;21011;-52
2021/07/26 06:55:41;;;;;;;7.62;5.80;;;28.60;60.80;;;;;;1894077;76;21112;-52
2021/07/26 06:58:11;;;;;;;10.20;5.87;;;28.70;60.70;;;;;;1894300;76;21026;-51
2021/07/26 07:00:41;;;;;;;7.90;5.28;;;28.80;60.60;;;;;;1893902;75;21054;-52
2021/07/26 07:03:10;;;;;;;5.45;4.75;;;28.90;60.40;;;;;;1893941;75;21022;-53
2021/07/26 07:05:40;;;;;;;14.75;6.87;;;29.00;59.80;;;;;;1894039;76;21042;-52
2021/07/26 07:08:09;;;;;;;11.12;7.85;;;29.10;59.80;;;;;;1893962;76;21096;-54
2021/07/26 07:10:39;;;;;;;7.78;6.45;;;29.10;59.80;;;;;;1892351;75;21038;-52
2021/07/26 07:13:09;;;;;;;8.98;6.12;;;29.10;60.00;;;;;;1893460;75;21127;-52
2021/07/26 07:15:38;;;;;;;6.72;5.40;;;29.20;59.90;;;;;;1893336;76;21065;-53
2021/07/26 07:18:07;;;;;;;8.80;5.97;;;29.20;59.80;;;;;;1893362;76;21127;-52
2021/07/26 07:20:37;;;;;;;10.15;4.92;;;29.30;60.30;;;;;;1893291;76;21031;-50
2021/07/26 07:23:06;;;;;;;13.40;4.60;;;29.40;59.80;;;;;;1893372;76;21034;-52
2021/07/26 07:25:37;;;;;;;8.83;4.42;;;29.50;59.00;;;;;;1893262;75;21073;-53
2021/07/26 07:28:06;;;;;;;6.20;4.90;;;29.60;59.00;;;;;;1893621;76;21018;-53
2021/07/26 07:30:36;;;;;;;5.10;3.55;;;29.70;58.90;;;;;;1893195;76;21058;-53
2021/07/26 07:33:06;;;;;;;17.60;6.97;;;29.80;58.30;;;;;;1893207;76;21064;-49
2021/07/26 07:35:35;;;;;;;7.62;4.33;;;29.80;58.00;;;;;;1893308;76;21026;-55
2021/07/26 07:38:04;;;;;;;9.10;5.80;;;29.80;58.00;;;;;;1893340;76;21093;-54
2021/07/26 07:40:35;;;;;;;8.88;5.42;;;29.90;57.90;;;;;;1893142;76;21084;-55
2021/07/26 07:43:05;;;;;;;12.65;5.58;;;29.90;57.90;;;;;;1893253;75;21026;-53
2021/07/26 07:45:34;;;;;;;10.78;5.97;;;29.90;57.80;;;;;;1893191;75;21092;-49
2021/07/26 07:48:04;;;;;;;7.95;4.92;;;30.00;57.90;;;;;;1893281;75;21072;-54
2021/07/26 07:50:33;;;;;;;9.03;4.92;;;30.10;57.90;;;;;;1893453;75;21007;-55
2021/07/26 07:53:03;;;;;;;8.25;5.33;;;30.20;57.70;;;;;;1893375;76;21081;-54
2021/07/26 07:55:32;;;;;;;10.18;5.08;;;30.30;57.80;;;;;;1893416;76;21096;-54
2021/07/26 07:58:05;;;;;;;10.45;5.33;;;30.40;57.40;;;;;;1893502;76;21053;-54
2021/07/26 08:00:35;;;;;;;7.37;5.17;;;30.50;57.10;;;;;;1857281;77;21135;-54
2021/07/26 08:03:04;;;;;;;9.05;5.58;;;30.60;57.00;;;;;;1852485;76;21487;-57
2021/07/26 08:05:34;;;;;;;6.25;5.40;;;30.50;56.70;;;;;;1852418;76;21161;-57
2021/07/26 08:08:04;;;;;;;7.72;4.85;;;30.50;56.80;;;;;;1852206;76;21087;-56
2021/07/26 08:10:33;;;;;;;6.00;4.50;;;30.50;56.70;;;;;;1852314;76;21045;-55
2021/07/26 08:13:02;;;;;;;7.70;4.80;;;30.60;56.80;;;;;;1852558;77;21021;-55
2021/07/26 08:15:32;;;;;;;7.70;5.03;;;30.50;56.90;;;;;;1852298;77;21041;-56
2021/07/26 08:18:02;;;;;;;20.23;5.33;;;30.60;56.90;;;;;;1852374;76;21029;-55
2021/07/26 08:20:32;;;;;;;6.72;4.60;;;30.70;57.00;;;;;;1852433;76;21036;-55
2021/07/26 08:23:01;;;;;;;9.03;4.90;;;30.80;56.70;;;;;;1852328;76;21095;-54
2021/07/26 08:25:32;;;;;;;10.98;5.95;;;30.90;56.60;;;;;;1852436;76;21092;-56
2021/07/26 08:28:01;;;;;;;7.30;5.12;;;31.00;56.40;;;;;;1852245;77;21046;-56
2021/07/26 08:30:33;;;;;;;9.13;5.40;;;31.20;56.40;;;;;;1852299;76;21107;-56
2021/07/26 08:33:03;;;;;;;11.40;6.15;;;31.20;55.90;;;;;;1852413;76;21107;-56
2021/07/26 08:35:33;;;;;;;8.63;4.65;;;31.30;55.80;;;;;;1852290;77;21120;-55
2021/07/26 08:38:03;;;;;;;14.38;6.33;;;31.30;55.80;;;;;;1852085;76;21013;-58
2021/07/26 08:40:35;;;;;;;8.10;4.70;;;31.30;55.60;;;;;;1852202;77;21037;-57
2021/07/26 08:43:11;;;;;;;6.40;4.95;;;31.20;55.30;;;;;;1852168;77;21036;-54
2021/07/26 08:45:36;;;;;;;13.72;6.30;;;31.10;55.10;;;;;;1850026;76;21550;-57
2021/07/26 08:48:07;;;;;;;8.18;4.83;;;31.10;55.70;;;;;;1852285;76;21182;-56
2021/07/26 08:50:38;;;;;;;9.60;5.05;;;31.20;55.60;;;;;;1852388;77;21037;-57
2021/07/26 08:53:09;;;;;;;10.85;4.33;;;31.30;55.60;;;;;;1852534;76;21178;-56
2021/07/26 08:55:38;;;;;;;13.03;4.92;;;31.50;55.20;;;;;;1852391;76;21084;-57
2021/07/26 08:58:08;;;;;;;5.37;4.20;;;31.60;54.80;;;;;;1852418;76;21075;-52
2021/07/26 09:00:38;;;;;;;5.65;4.12;;;31.60;54.50;;;;;;1852256;76;21072;-56
2021/07/26 09:03:07;;;;;;;9.48;4.22;;;31.60;54.20;;;;;;1852430;76;21161;-55
2021/07/26 09:05:37;;;;;;;7.47;4.15;;;31.60;53.90;;;;;;1852424;76;21033;-56
2021/07/26 09:08:07;;;;;;;8.53;4.47;;;31.60;53.20;;;;;;1852400;77;21558;-57
2021/07/26 09:10:37;;;;;;;6.55;4.65;;;31.60;53.10;;;;;;1852296;76;21088;-57
2021/07/26 09:13:08;;;;;;;6.97;4.70;;;31.60;53.30;;;;;;1852397;76;21041;-56
2021/07/26 09:15:40;;;;;;;6.72;4.60;;;31.60;53.20;;;;;;1852330;76;21104;-55
2021/07/26 09:18:10;;;;;;;5.67;4.17;;;31.70;52.70;;;;;;1852201;76;21068;-56
2021/07/26 09:20:40;;;;;;;9.43;4.80;;;31.80;52.30;;;;;;1852382;77;21094;-55
2021/07/26 09:23:17;;;;;;;6.42;4.33;;;31.80;52.30;;;;;;1852002;76;21076;-52
2021/07/26 09:25:53;;;;;;;16.20;5.12;;;31.80;52.20;;;;;;1852232;77;21040;-54
2021/07/26 09:28:23;;;;;;;7.72;4.15;;;31.80;51.60;;;;;;1850555;77;21135;-53
2021/07/26 09:30:53;;;;;;;7.25;3.75;;;31.70;51.60;;;;;;1852215;76;21090;-55
2021/07/26 09:33:28;;;;;;;5.30;4.05;;;31.70;51.70;;;;;;1852286;76;20997;-54
2021/07/26 09:36:09;;;;;;;6.62;4.05;;;31.60;51.70;;;;;;1852179;77;21546;-49
2021/07/26 09:38:39;;;;;;;6.17;3.40;;;31.50;52.00;;;;;;1852366;77;21554;-56
2021/07/26 09:41:08;;;;;;;9.75;4.75;;;31.50;52.00;;;;;;1852213;77;21130;-56
2021/07/26 09:43:38;;;;;;;11.05;5.25;;;31.40;52.00;;;;;;1852162;76;21111;-56
2021/07/26 09:46:08;;;;;;;9.63;4.53;;;31.40;52.00;;;;;;1852114;77;21040;-53
2021/07/26 09:48:37;;;;;;;10.45;4.33;;;31.30;52.30;;;;;;1852269;76;21072;-53
2021/07/26 09:51:06;;;;;;;6.85;4.17;;;31.30;52.30;;;;;;1852033;76;21107;-55
2021/07/26 09:53:38;;;;;;;7.53;4.72;;;31.40;52.20;;;;;;1852247;77;21096;-53
2021/07/26 09:56:16;;;;;;;6.08;3.80;;;31.50;52.20;;;;;;1848967;76;21490;-54
2021/07/26 09:58:45;;;;;;;8.03;4.10;;;31.70;51.80;;;;;;1851997;76;21084;-56
2021/07/26 10:01:16;;;;;;;12.98;5.20;;;31.90;51.20;;;;;;1852244;76;22130;-57
2021/07/26 10:03:46;;;;;;;12.65;3.22;;;31.90;50.90;;;;;;1852491;77;21123;-57
2021/07/26 10:06:18;;;;;;;6.03;3.70;;;31.90;50.50;;;;;;1852137;77;21076;-54
2021/07/26 10:08:49;;;;;;;6.28;3.40;;;31.90;50.50;;;;;;1852154;76;21083;-55
2021/07/26 10:11:18;;;;;;;6.22;3.75;;;31.90;50.50;;;;;;1852108;77;21108;-56
2021/07/26 10:13:48;;;;;;;6.22;3.77;;;31.80;50.70;;;;;;1852158;77;21120;-55
2021/07/26 10:16:18;;;;;;;16.75;4.08;;;31.90;50.60;;;;;;1852341;76;21088;-58
2021/07/26 10:18:49;;;;;;;5.75;3.55;;;32.00;50.30;;;;;;1852300;77;21262;-57
2021/07/26 10:21:20;;;;;;;8.60;4.25;;;32.00;49.90;;;;;;1852054;77;21142;-51
2021/07/26 10:35:52;;;;;;;10.80;4.15;;;32.00;49.30;;;;;;1923838;74;28636;-50
2021/07/26 10:38:45;;;;;;;11.78;4.22;;;32.80;49.40;;;;;;1884567;76;21136;-52
2021/07/26 10:41:17;;;;;;;9.80;4.20;;;32.80;48.70;;;;;;1884475;76;21042;-48
2021/07/26 10:44:01;;;;;;;5.35;3.65;;;32.90;48.10;;;;;;1878162;75;21171;-48
2021/07/26 10:46:27;;;;;;;10.55;4.80;;;32.90;47.50;;;;;;1883209;76;21468;-47
2021/07/26 10:48:57;;;;;;;5.42;3.10;;;32.80;47.30;;;;;;1884421;76;21006;-51
2021/07/26 10:51:40;;;;;;;9.93;3.22;;;32.80;46.60;;;;;;1884611;76;21070;-49
2021/07/26 10:54:12;;;;;;;6.20;3.40;;;32.80;46.80;;;;;;1861989;76;21082;-51
2021/07/26 10:57:05;;;;;;;12.28;4.12;;;32.80;47.40;;;;;;1881482;75;21488;-51
2021/07/26 11:00:09;;;;;;;3.95;2.98;;;32.90;46.60;;;;;;1884572;76;21093;-48
2021/07/26 11:02:40;;;;;;;14.30;4.50;;;33.00;45.40;;;;;;1884448;76;21096;-48
2021/07/26 11:05:30;;;;;;;8.25;3.50;;;33.00;45.40;;;;;;1884286;75;21097;-51
2021/07/26 11:08:24;;;;;;;7.85;3.72;;;33.00;45.70;;;;;;1884533;76;21476;-50
2021/07/26 11:10:57;;;;;;;7.15;2.87;;;33.20;45.50;;;;;;1882637;76;21078;-50
2021/07/26 11:13:47;;;;;;;6.58;3.00;;;33.20;45.30;;;;;;1884523;76;21148;-51
2021/07/26 11:16:16;;;;;;;6.50;2.83;;;33.40;45.10;;;;;;1872792;75;21026;-48
2021/07/26 11:18:46;;;;;;;4.67;3.17;;;33.40;44.50;;;;;;1884541;76;21026;-50
2021/07/26 11:21:16;;;;;;;3.33;2.75;;;33.40;44.10;;;;;;1884413;76;21070;-52
2021/07/26 11:23:53;;;;;;;5.30;3.02;;;33.50;44.30;;;;;;1884351;75;21072;-50
2021/07/26 11:26:24;;;;;;;9.50;3.47;;;33.60;43.00;;;;;;1884375;76;21026;-52
2021/07/26 11:28:58;;;;;;;14.00;3.30;;;33.60;43.60;;;;;;1884190;76;21089;-51
2021/07/26 11:31:30;;;;;;;7.37;3.10;;;33.60;43.40;;;;;;1884421;75;21061;-51
2021/07/26 11:34:07;;;;;;;4.12;3.22;;;33.50;43.20;;;;;;1884436;76;21081;-51
2021/07/26 11:36:38;;;;;;;3.08;2.60;;;33.60;43.30;;;;;;1883842;76;21047;-50
2021/07/26 11:39:08;;;;;;;3.77;2.62;;;33.50;43.10;;;;;;1883673;75;21070;-50
2021/07/26 11:41:40;;;;;;;4.90;2.70;;;33.50;43.20;;;;;;1884119;76;21070;-52
2021/07/26 11:44:10;;;;;;;7.83;3.77;;;33.50;43.30;;;;;;1881245;76;21034;-49
2021/07/26 11:46:42;;;;;;;7.33;2.80;;;33.50;42.90;;;;;;1883657;75;21074;-48
2021/07/26 11:49:14;;;;;;;8.38;3.30;;;33.50;42.70;;;;;;1882971;75;21054;-48
2021/07/26 11:51:44;;;;;;;5.97;2.75;;;33.40;42.60;;;;;;1883429;76;21085;-47
2021/07/26 11:54:13;;;;;;;7.50;2.65;;;33.30;42.40;;;;;;1883680;75;21066;-50
2021/07/26 11:56:42;;;;;;;8.20;3.42;;;33.20;42.30;;;;;;1883916;76;21027;-51
2021/07/26 11:59:17;;;;;;;8.75;3.30;;;33.10;42.90;;;;;;1883742;75;21081;-51
2021/07/26 12:02:01;;;;;;;6.15;3.12;;;33.00;42.80;;;;;;1883560;76;21042;-50
2021/07/26 12:04:31;;;;;;;6.85;2.95;;;33.00;42.40;;;;;;1883574;75;21030;-51
2021/07/26 12:07:05;;;;;;;3.77;2.95;;;32.80;42.60;;;;;;1883813;75;21488;-52
2021/07/26 12:09:35;;;;;;;11.38;3.65;;;32.80;42.90;;;;;;1883758;75;21082;-49
2021/07/26 12:12:15;;;;;;;3.75;3.33;;;32.70;42.60;;;;;;1871915;77;21501;-50
2021/07/26 12:14:45;;;;;;;5.70;2.85;;;32.60;42.70;;;;;;1871914;77;21445;-49
2021/07/26 12:17:20;;;;;;;4.60;2.22;;;32.60;42.80;;;;;;1871762;77;21077;-47
2021/07/26 12:20:04;;;;;;;5.75;3.65;;;32.60;42.30;;;;;;1868621;76;21113;-49
2021/07/26 12:22:41;;;;;;;9.70;6.20;;;32.50;42.40;;;;;;1872155;76;21709;-50
2021/07/26 12:25:22;;;;;;;4.65;3.40;;;32.60;42.70;;;;;;1871714;77;21094;-49
2021/07/26 12:28:02;;;;;;;3.77;2.60;;;32.50;42.50;;;;;;1871978;77;20999;-51
2021/07/26 12:30:43;;;;;;;4.15;2.83;;;32.50;42.00;;;;;;1871867;77;21019;-50
2021/07/26 12:33:14;;;;;;;9.30;4.35;;;32.50;41.70;;;;;;1871890;77;21432;-49
2021/07/26 12:35:43;;;;;;;8.78;5.05;;;32.50;41.80;;;;;;1871021;75;21584;-48
2021/07/26 12:38:18;;;;;;;11.45;5.28;;;32.40;41.80;;;;;;1872429;77;21031;-45
2021/07/26 12:40:50;;;;;;;10.50;4.67;;;32.40;41.30;;;;;;1872543;76;21140;-50
2021/07/26 12:43:22;;;;;;;11.35;4.53;;;32.30;41.40;;;;;;1837407;76;21558;-47
2021/07/26 12:46:00;;;;;;;6.45;4.50;;;32.30;41.40;;;;;;1836996;76;21026;-50
2021/07/26 12:48:31;;;;;;;9.80;4.33;;;32.30;41.20;;;;;;1837310;77;21081;-46
2021/07/26 12:51:01;;;;;;;5.45;3.62;;;32.20;41.70;;;;;;1837289;78;21112;-48
2021/07/26 12:53:31;;;;;;;8.10;3.92;;;32.10;41.00;;;;;;1837244;77;21034;-49
2021/07/26 12:56:00;;;;;;;9.93;3.12;;;32.00;40.80;;;;;;1837228;77;21089;-46
2021/07/26 12:58:30;;;;;;;7.87;2.83;;;32.00;40.90;;;;;;1837245;77;21030;-50
2021/07/26 13:01:00;;;;;;;11.53;3.37;;;31.90;41.00;;;;;;1837280;76;21025;-49
2021/07/26 13:03:30;;;;;;;17.17;3.42;;;31.90;41.50;;;;;;1837290;78;21061;-48
2021/07/26 13:05:59;;;;;;;7.67;2.65;;;31.90;40.30;;;;;;1837215;77;21124;-48
2021/07/26 13:08:29;;;;;;;12.28;3.42;;;31.90;40.10;;;;;;1837389;78;21143;-47
2021/07/26 13:10:58;;;;;;;5.42;3.20;;;31.80;39.90;;;;;;1837366;77;21030;-50
2021/07/26 13:13:27;;;;;;;6.80;2.90;;;31.80;39.70;;;;;;1837263;77;21100;-50
2021/07/26 13:15:57;;;;;;;5.20;2.83;;;31.70;39.40;;;;;;1837275;77;21112;-49
2021/07/26 13:18:27;;;;;;;9.68;3.67;;;31.70;39.50;;;;;;1837137;76;21210;-51